sensor_id;sensor_type;location;lat;lon;timestamp;pressure;altitude;pressure_sealevel;temperature;humidity
11621;BME280;5866;49.094;11.900;2023-04-10T00:02:24;96951.53;;;5.57;100.00
11621;BME280;5866;49.094;11.900;2023-04-10T00:04:52;96957.88;;;5.55;100.00
11621;BME280;5866;49.094;11.900;2023-04-10T00:07:21;96958.94;;;5.52;100.00
11621;BME280;5866;49.094;11.900;2023-04-10T00:09:48;96951.59;;;5.45;100.00
11621;BME280;5866;49.094;11.900;2023-04-10T00:12:16;96956.75;;;5.23;100.00
11621;BME280;5866;49.094;11.900;2023-04-10T00:14:43;96960.81;;;5.03;100.00
11621;BME280;5866;49.094;11.900;2023-04-10T00:17:11;96958.72;;;5.08;100.00
11621;BME280;5866;49.094;11.900;2023-04-10T00:19:39;96962.88;;;5.23;100.00
11621;BME280;5866;49.094;11.900;2023-04-10T00:22:06;96951.84;;;5.42;100.00
11621;BME280;5866;49.094;11.900;2023-04-10T00:24:35;96950.31;;;5.50;100.00
11621;BME280;5866;49.094;11.900;2023-04-10T00:27:02;96943.09;;;5.41;100.00
11621;BME280;5866;49.094;11.900;2023-04-10T00:29:30;96938.75;;;5.29;100.00
11621;BME280;5866;49.094;11.900;2023-04-10T00:31:57;96944.03;;;4.93;100.00
11621;BME280;5866;49.094;11.900;2023-04-10T00:34:25;96941.13;;;5.32;100.00
11621;BME280;5866;49.094;11.900;2023-04-10T00:36:52;96939.03;;;5.37;100.00
11621;BME280;5866;49.094;11.900;2023-04-10T00:39:20;96931.66;;;5.42;100.00
11621;BME280;5866;49.094;11.900;2023-04-10T00:41:49;96937.50;;;5.46;100.00
11621;BME280;5866;49.094;11.900;2023-04-10T00:44:16;96938.50;;;5.56;100.00
11621;BME280;5866;49.094;11.900;2023-04-10T00:46:43;96936.44;;;5.83;100.00
11621;BME280;5866;49.094;11.900;2023-04-10T00:49:12;96930.63;;;6.02;100.00
11621;BME280;5866;49.094;11.900;2023-04-10T00:51:39;96919.53;;;6.09;100.00
11621;BME280;5866;49.094;11.900;2023-04-10T00:54:09;96918.47;;;6.23;100.00
11621;BME280;5866;49.094;11.900;2023-04-10T00:56:38;96926.44;;;5.64;100.00
11621;BME280;5866;49.094;11.900;2023-04-10T00:59:07;96927.28;;;5.65;100.00
11621;BME280;5866;49.094;11.900;2023-04-10T01:01:35;96925.38;;;5.67;100.00
11621;BME280;5866;49.094;11.900;2023-04-10T01:04:03;96918.97;;;5.82;100.00
11621;BME280;5866;49.094;11.900;2023-04-10T01:06:45;96915.81;;;6.01;100.00
11621;BME280;5866;49.094;11.900;2023-04-10T01:09:19;96917.34;;;6.03;100.00
11621;BME280;5866;49.094;11.900;2023-04-10T01:11:54;96900.00;;;6.12;100.00
11621;BME280;5866;49.094;11.900;2023-04-10T01:14:32;96896.78;;;6.30;100.00
11621;BME280;5866;49.094;11.900;2023-04-10T01:17:06;96899.41;;;6.08;100.00
11621;BME280;5866;49.094;11.900;2023-04-10T01:20:03;96896.31;;;5.69;100.00
11621;BME280;5866;49.094;11.900;2023-04-10T01:22:34;96901.47;;;5.35;100.00
11621;BME280;5866;49.094;11.900;2023-04-10T01:25:22;96901.66;;;5.56;100.00
11621;BME280;5866;49.094;11.900;2023-04-10T01:28:06;96898.44;;;5.63;100.00
11621;BME280;5866;49.094;11.900;2023-04-10T01:30:39;96898.25;;;5.43;100.00
11621;BME280;5866;49.094;11.900;2023-04-10T01:33:08;96890.69;;;5.27;100.00
11621;BME280;5866;49.094;11.900;2023-04-10T01:35:40;96904.09;;;5.35;100.00
11621;BME280;5866;49.094;11.900;2023-04-10T01:38:10;96901.41;;;5.24;100.00
11621;BME280;5866;49.094;11.900;2023-04-10T01:40:38;96905.00;;;5.00;100.00
11621;BME280;5866;49.094;11.900;2023-04-10T01:43:09;96910.25;;;4.76;100.00
11621;BME280;5866;49.094;11.900;2023-04-10T01:45:39;96911.25;;;4.86;100.00
11621;BME280;5866;49.094;11.900;2023-04-10T01:48:09;96909.03;;;5.16;100.00
11621;BME280;5866;49.094;11.900;2023-04-10T01:50:37;96903.19;;;5.24;100.00
11621;BME280;5866;49.094;11.900;2023-04-10T01:53:05;96901.03;;;5.18;100.00
11621;BME280;5866;49.094;11.900;2023-04-10T01:55:35;96904.56;;;4.69;100.00
11621;BME280;5866;49.094;11.900;2023-04-10T01:58:03;96896.16;;;5.01;100.00
11621;BME280;5866;49.094;11.900;2023-04-10T02:00:36;96888.59;;;5.20;100.00
11621;BME280;5866;49.094;11.900;2023-04-10T02:03:06;96891.47;;;4.93;100.00
11621;BME280;5866;49.094;11.900;2023-04-10T02:05:41;96887.53;;;4.99;100.00
11621;BME280;5866;49.094;11.900;2023-04-10T02:08:14;96882.41;;;4.97;100.00
11621;BME280;5866;49.094;11.900;2023-04-10T02:10:49;96882.13;;;4.89;100.00
11621;BME280;5866;49.094;11.900;2023-04-10T02:13:20;96879.16;;;4.70;100.00
11621;BME280;5866;49.094;11.900;2023-04-10T02:15:49;96872.84;;;4.72;100.00
11621;BME280;5866;49.094;11.900;2023-04-10T02:18:21;96877.44;;;4.81;100.00
11621;BME280;5866;49.094;11.900;2023-04-10T02:20:49;96871.25;;;4.34;100.00
11621;BME280;5866;49.094;11.900;2023-04-10T02:23:18;96874.97;;;4.19;100.00
11621;BME280;5866;49.094;11.900;2023-04-10T02:25:46;96883.22;;;4.38;100.00
11621;BME280;5866;49.094;11.900;2023-04-10T02:28:14;96871.44;;;4.56;100.00
11621;BME280;5866;49.094;11.900;2023-04-10T02:30:41;96881.94;;;4.56;100.00
11621;BME280;5866;49.094;11.900;2023-04-10T02:33:09;96883.66;;;4.32;100.00
11621;BME280;5866;49.094;11.900;2023-04-10T02:35:38;96883.44;;;4.35;100.00
11621;BME280;5866;49.094;11.900;2023-04-10T02:38:05;96885.09;;;4.48;100.00
11621;BME280;5866;49.094;11.900;2023-04-10T02:40:34;96889.88;;;4.31;100.00
11621;BME280;5866;49.094;11.900;2023-04-10T02:43:01;96891.22;;;4.24;100.00
11621;BME280;5866;49.094;11.900;2023-04-10T02:45:28;96888.09;;;4.19;100.00
11621;BME280;5866;49.094;11.900;2023-04-10T02:47:58;96895.03;;;3.94;100.00
11621;BME280;5866;49.094;11.900;2023-04-10T02:50:26;96898.06;;;4.14;100.00
11621;BME280;5866;49.094;11.900;2023-04-10T02:52:56;96900.50;;;4.17;100.00
11621;BME280;5866;49.094;11.900;2023-04-10T02:55:24;96899.34;;;4.21;100.00
11621;BME280;5866;49.094;11.900;2023-04-10T02:57:51;96898.19;;;4.12;100.00
11621;BME280;5866;49.094;11.900;2023-04-10T03:00:19;96890.53;;;3.96;100.00
11621;BME280;5866;49.094;11.900;2023-04-10T03:02:46;96895.25;;;3.91;100.00
11621;BME280;5866;49.094;11.900;2023-04-10T03:05:14;96895.63;;;3.60;100.00
11621;BME280;5866;49.094;11.900;2023-04-10T03:07:41;96899.84;;;3.11;100.00
11621;BME280;5866;49.094;11.900;2023-04-10T03:10:10;96893.97;;;3.59;100.00
11621;BME280;5866;49.094;11.900;2023-04-10T03:12:38;96895.13;;;3.55;100.00
11621;BME280;5866;49.094;11.900;2023-04-10T03:15:06;96892.53;;;3.80;100.00
11621;BME280;5866;49.094;11.900;2023-04-10T03:17:34;96893.03;;;3.98;100.00
11621;BME280;5866;49.094;11.900;2023-04-10T03:20:01;96888.00;;;3.95;100.00
11621;BME280;5866;49.094;11.900;2023-04-10T03:22:29;96887.47;;;3.77;100.00
11621;BME280;5866;49.094;11.900;2023-04-10T03:24:58;96894.69;;;3.49;100.00
11621;BME280;5866;49.094;11.900;2023-04-10T03:27:27;96891.63;;;3.30;100.00
11621;BME280;5866;49.094;11.900;2023-04-10T03:29:57;96892.09;;;3.74;100.00
11621;BME280;5866;49.094;11.900;2023-04-10T03:32:24;96893.56;;;3.78;100.00
11621;BME280;5866;49.094;11.900;2023-04-10T03:34:53;96891.06;;;3.76;100.00
11621;BME280;5866;49.094;11.900;2023-04-10T03:37:21;96897.97;;;3.90;100.00
11621;BME280;5866;49.094;11.900;2023-04-10T03:39:48;96901.97;;;3.70;100.00
11621;BME280;5866;49.094;11.900;2023-04-10T03:42:16;96898.25;;;3.60;100.00
11621;BME280;5866;49.094;11.900;2023-04-10T03:44:44;96899.94;;;3.49;100.00
11621;BME280;5866;49.094;11.900;2023-04-10T03:47:12;96896.50;;;3.61;100.00
11621;BME280;5866;49.094;11.900;2023-04-10T03:49:39;96905.09;;;3.75;100.00
11621;BME280;5866;49.094;11.900;2023-04-10T03:52:07;96904.47;;;3.72;100.00
11621;BME280;5866;49.094;11.900;2023-04-10T03:54:34;96907.31;;;3.69;100.00
11621;BME280;5866;49.094;11.900;2023-04-10T03:57:02;96912.06;;;3.76;100.00
11621;BME280;5866;49.094;11.900;2023-04-10T03:59:29;96909.72;;;3.72;100.00
11621;BME280;5866;49.094;11.900;2023-04-10T04:02:06;96905.50;;;3.57;100.00
11621;BME280;5866;49.094;11.900;2023-04-10T04:04:34;96903.16;;;3.40;100.00
11621;BME280;5866;49.094;11.900;2023-04-10T04:07:02;96898.03;;;3.38;100.00
11621;BME280;5866;49.094;11.900;2023-04-10T04:09:29;96905.16;;;3.36;100.00
11621;BME280;5866;49.094;11.900;2023-04-10T04:11:57;96906.34;;;3.45;100.00
11621;BME280;5866;49.094;11.900;2023-04-10T04:14:24;96905.94;;;3.51;100.00
11621;BME280;5866;49.094;11.900;2023-04-10T04:16:52;96901.72;;;3.48;100.00
11621;BME280;5866;49.094;11.900;2023-04-10T04:19:20;96901.09;;;3.45;100.00
11621;BME280;5866;49.094;11.900;2023-04-10T04:21:48;96905.59;;;3.43;100.00
11621;BME280;5866;49.094;11.900;2023-04-10T04:24:15;96911.88;;;3.40;100.00
11621;BME280;5866;49.094;11.900;2023-04-10T04:26:43;96908.97;;;3.45;100.00
11621;BME280;5866;49.094;11.900;2023-04-10T04:29:10;96912.22;;;3.48;100.00
11621;BME280;5866;49.094;11.900;2023-04-10T04:31:38;96916.53;;;3.49;100.00
11621;BME280;5866;49.094;11.900;2023-04-10T04:34:05;96919.13;;;3.37;100.00
11621;BME280;5866;49.094;11.900;2023-04-10T04:36:34;96929.53;;;3.51;100.00
11621;BME280;5866;49.094;11.900;2023-04-10T04:39:02;96926.72;;;3.54;100.00
11621;BME280;5866;49.094;11.900;2023-04-10T04:41:29;96932.13;;;3.38;100.00
11621;BME280;5866;49.094;11.900;2023-04-10T04:43:58;96935.81;;;3.48;100.00
11621;BME280;5866;49.094;11.900;2023-04-10T04:46:26;96941.28;;;2.92;100.00
11621;BME280;5866;49.094;11.900;2023-04-10T04:48:54;96938.78;;;3.17;100.00
11621;BME280;5866;49.094;11.900;2023-04-10T04:51:21;96943.22;;;2.76;100.00
11621;BME280;5866;49.094;11.900;2023-04-10T04:53:50;96947.03;;;3.11;100.00
11621;BME280;5866;49.094;11.900;2023-04-10T04:56:18;96940.38;;;3.71;100.00
11621;BME280;5866;49.094;11.900;2023-04-10T04:58:46;96944.16;;;3.92;100.00
11621;BME280;5866;49.094;11.900;2023-04-10T05:01:13;96938.06;;;4.04;100.00
11621;BME280;5866;49.094;11.900;2023-04-10T05:03:41;96936.28;;;4.18;100.00
11621;BME280;5866;49.094;11.900;2023-04-10T05:06:09;96937.56;;;4.37;100.00
11621;BME280;5866;49.094;11.900;2023-04-10T05:08:37;96945.94;;;4.42;100.00
11621;BME280;5866;49.094;11.900;2023-04-10T05:11:06;96932.56;;;4.58;100.00
11621;BME280;5866;49.094;11.900;2023-04-10T05:13:33;96936.47;;;4.65;100.00
11621;BME280;5866;49.094;11.900;2023-04-10T05:16:01;96936.53;;;4.76;100.00
11621;BME280;5866;49.094;11.900;2023-04-10T05:18:28;96944.38;;;4.89;100.00
11621;BME280;5866;49.094;11.900;2023-04-10T05:20:56;96946.16;;;4.88;100.00
11621;BME280;5866;49.094;11.900;2023-04-10T05:23:23;96934.31;;;5.06;100.00
11621;BME280;5866;49.094;11.900;2023-04-10T05:25:51;96929.88;;;5.19;100.00
11621;BME280;5866;49.094;11.900;2023-04-10T05:28:20;96941.00;;;5.23;100.00
11621;BME280;5866;49.094;11.900;2023-04-10T05:30:48;96939.03;;;5.37;100.00
11621;BME280;5866;49.094;11.900;2023-04-10T05:33:16;96950.03;;;6.12;100.00
11621;BME280;5866;49.094;11.900;2023-04-10T05:35:44;96943.34;;;6.85;100.00
11621;BME280;5866;49.094;11.900;2023-04-10T05:38:12;96936.19;;;7.62;100.00
11621;BME280;5866;49.094;11.900;2023-04-10T05:40:43;96925.72;;;8.94;100.00
11621;BME280;5866;49.094;11.900;2023-04-10T05:43:11;96929.44;;;10.07;96.81
11621;BME280;5866;49.094;11.900;2023-04-10T05:45:42;96926.75;;;11.00;98.32
11621;BME280;5866;49.094;11.900;2023-04-10T05:48:10;96931.41;;;11.87;91.61
11621;BME280;5866;49.094;11.900;2023-04-10T05:50:37;96928.50;;;12.42;71.47
11621;BME280;5866;49.094;11.900;2023-04-10T05:53:05;96920.75;;;13.24;74.63
11621;BME280;5866;49.094;11.900;2023-04-10T05:55:32;96924.44;;;14.29;68.93
11621;BME280;5866;49.094;11.900;2023-04-10T05:58:00;96921.25;;;15.21;76.56
11621;BME280;5866;49.094;11.900;2023-04-10T06:00:27;96917.44;;;15.54;60.64
11621;BME280;5866;49.094;11.900;2023-04-10T06:02:56;96920.97;;;16.00;65.14
11621;BME280;5866;49.094;11.900;2023-04-10T06:05:24;96920.31;;;16.57;62.44
11621;BME280;5866;49.094;11.900;2023-04-10T06:07:51;96924.91;;;17.30;58.21
11621;BME280;5866;49.094;11.900;2023-04-10T06:10:22;96924.41;;;18.12;54.45
11621;BME280;5866;49.094;11.900;2023-04-10T06:12:49;96918.41;;;19.08;50.72
11621;BME280;5866;49.094;11.900;2023-04-10T06:15:17;96919.63;;;20.07;50.75
11621;BME280;5866;49.094;11.900;2023-04-10T06:17:44;96915.34;;;21.17;45.90
11621;BME280;5866;49.094;11.900;2023-04-10T06:20:13;96910.31;;;22.22;44.45
11621;BME280;5866;49.094;11.900;2023-04-10T06:22:41;96908.25;;;23.23;44.02
11621;BME280;5866;49.094;11.900;2023-04-10T06:25:08;96912.31;;;24.04;42.84
11621;BME280;5866;49.094;11.900;2023-04-10T06:27:36;96908.81;;;24.68;38.95
11621;BME280;5866;49.094;11.900;2023-04-10T06:30:05;96906.88;;;24.04;35.17
11621;BME280;5866;49.094;11.900;2023-04-10T06:32:33;96901.63;;;23.55;37.37
11621;BME280;5866;49.094;11.900;2023-04-10T06:35:00;96895.25;;;22.88;36.04
11621;BME280;5866;49.094;11.900;2023-04-10T06:37:30;96886.13;;;22.34;36.96
11621;BME280;5866;49.094;11.900;2023-04-10T06:40:03;96896.09;;;22.02;37.97
11621;BME280;5866;49.094;11.900;2023-04-10T06:42:31;96887.97;;;20.87;40.13
11621;BME280;5866;49.094;11.900;2023-04-10T06:44:59;96896.69;;;20.30;40.64
11621;BME280;5866;49.094;11.900;2023-04-10T06:47:26;96889.25;;;20.58;40.71
11621;BME280;5866;49.094;11.900;2023-04-10T06:49:54;96888.66;;;19.63;41.60
11621;BME280;5866;49.094;11.900;2023-04-10T06:52:22;96890.75;;;19.27;42.33
11621;BME280;5866;49.094;11.900;2023-04-10T06:54:50;96887.84;;;18.88;43.63
11621;BME280;5866;49.094;11.900;2023-04-10T06:57:18;96894.19;;;18.74;44.08
11621;BME280;5866;49.094;11.900;2023-04-10T06:59:46;96894.84;;;19.57;43.12
11621;BME280;5866;49.094;11.900;2023-04-10T07:02:14;96896.22;;;19.06;43.29
11621;BME280;5866;49.094;11.900;2023-04-10T07:04:41;96894.00;;;19.57;43.36
11621;BME280;5866;49.094;11.900;2023-04-10T07:07:09;96891.47;;;19.42;42.40
11621;BME280;5866;49.094;11.900;2023-04-10T07:09:38;96898.13;;;18.78;44.29
11621;BME280;5866;49.094;11.900;2023-04-10T07:12:07;96902.78;;;18.63;44.50
11621;BME280;5866;49.094;11.900;2023-04-10T07:14:35;96901.94;;;19.71;43.30
11621;BME280;5866;49.094;11.900;2023-04-10T07:17:02;96907.41;;;20.17;42.12
11621;BME280;5866;49.094;11.900;2023-04-10T07:19:30;96910.75;;;20.06;41.82
11621;BME280;5866;49.094;11.900;2023-04-10T07:21:58;96904.16;;;20.22;41.68
11621;BME280;5866;49.094;11.900;2023-04-10T07:24:26;96901.53;;;19.74;42.22
11621;BME280;5866;49.094;11.900;2023-04-10T07:26:53;96895.22;;;19.41;42.67
11621;BME280;5866;49.094;11.900;2023-04-10T07:29:23;96898.50;;;19.37;42.78
11621;BME280;5866;49.094;11.900;2023-04-10T07:31:51;96902.28;;;19.55;42.33
11621;BME280;5866;49.094;11.900;2023-04-10T07:34:19;96907.19;;;20.06;41.36
11621;BME280;5866;49.094;11.900;2023-04-10T07:36:46;96903.13;;;20.62;40.73
11621;BME280;5866;49.094;11.900;2023-04-10T07:39:13;96899.16;;;20.97;39.82
11621;BME280;5866;49.094;11.900;2023-04-10T07:41:41;96902.91;;;20.96;40.21
11621;BME280;5866;49.094;11.900;2023-04-10T07:44:09;96903.94;;;21.08;39.96
11621;BME280;5866;49.094;11.900;2023-04-10T07:46:39;96906.22;;;20.72;40.34
11621;BME280;5866;49.094;11.900;2023-04-10T07:49:07;96907.03;;;21.12;39.79
11621;BME280;5866;49.094;11.900;2023-04-10T07:51:34;96910.38;;;20.22;40.89
11621;BME280;5866;49.094;11.900;2023-04-10T07:54:02;96911.06;;;19.83;42.22
11621;BME280;5866;49.094;11.900;2023-04-10T07:56:30;96910.28;;;19.90;41.77
11621;BME280;5866;49.094;11.900;2023-04-10T07:58:58;96911.59;;;20.20;41.41
11621;BME280;5866;49.094;11.900;2023-04-10T08:01:26;96904.53;;;20.19;40.92
11621;BME280;5866;49.094;11.900;2023-04-10T08:03:55;96905.72;;;19.97;41.72
11621;BME280;5866;49.094;11.900;2023-04-10T08:06:23;96898.78;;;20.35;40.82
11621;BME280;5866;49.094;11.900;2023-04-10T08:08:51;96891.72;;;20.40;40.62
11621;BME280;5866;49.094;11.900;2023-04-10T08:11:24;96893.22;;;21.53;39.52
11621;BME280;5866;49.094;11.900;2023-04-10T08:13:53;96893.06;;;21.85;38.65
11621;BME280;5866;49.094;11.900;2023-04-10T08:16:22;96890.53;;;21.97;38.10
11621;BME280;5866;49.094;11.900;2023-04-10T08:18:50;96888.00;;;22.02;38.54
11621;BME280;5866;49.094;11.900;2023-04-10T08:21:20;96887.72;;;21.21;38.70
11621;BME280;5866;49.094;11.900;2023-04-10T08:23:49;96888.34;;;20.06;40.31
11621;BME280;5866;49.094;11.900;2023-04-10T08:26:16;96888.34;;;20.06;40.94
11621;BME280;5866;49.094;11.900;2023-04-10T08:28:45;96882.94;;;19.99;41.33
11621;BME280;5866;49.094;11.900;2023-04-10T08:31:15;96882.69;;;19.27;42.52
11621;BME280;5866;49.094;11.900;2023-04-10T08:33:43;96896.72;;;19.57;42.09
11621;BME280;5866;49.094;11.900;2023-04-10T08:36:11;96891.59;;;18.87;43.44
11621;BME280;5866;49.094;11.900;2023-04-10T08:38:45;96900.38;;;18.47;43.89
11621;BME280;5866;49.094;11.900;2023-04-10T08:41:13;96900.22;;;18.34;44.27
11621;BME280;5866;49.094;11.900;2023-04-10T08:43:41;96895.28;;;17.53;44.61
11621;BME280;5866;49.094;11.900;2023-04-10T08:46:11;96905.50;;;17.78;44.70
11621;BME280;5866;49.094;11.900;2023-04-10T08:48:45;96889.28;;;18.35;43.07
11621;BME280;5866;49.094;11.900;2023-04-10T08:51:16;96900.81;;;17.66;44.31
11621;BME280;5866;49.094;11.900;2023-04-10T08:53:57;96898.72;;;17.32;44.31
11621;BME280;5866;49.094;11.900;2023-04-10T08:56:29;96885.91;;;17.13;45.79
11621;BME280;5866;49.094;11.900;2023-04-10T08:59:00;96890.22;;;17.14;44.79
11621;BME280;5866;49.094;11.900;2023-04-10T09:01:28;96884.88;;;17.64;44.75
11621;BME280;5866;49.094;11.900;2023-04-10T09:03:56;96890.00;;;17.59;44.13
11621;BME280;5866;49.094;11.900;2023-04-10T09:06:25;96890.66;;;17.61;44.77
11621;BME280;5866;49.094;11.900;2023-04-10T09:08:54;96885.53;;;17.66;45.44
11621;BME280;5866;49.094;11.900;2023-04-10T09:11:21;96886.81;;;17.70;45.56
11621;BME280;5866;49.094;11.900;2023-04-10T09:13:49;96879.63;;;17.56;45.52
11621;BME280;5866;49.094;11.900;2023-04-10T09:16:16;96885.09;;;15.86;48.78
11621;BME280;5866;49.094;11.900;2023-04-10T09:18:45;96873.13;;;16.19;47.88
11621;BME280;5866;49.094;11.900;2023-04-10T09:21:15;96876.59;;;16.05;48.21
11621;BME280;5866;49.094;11.900;2023-04-10T09:23:43;96877.53;;;16.12;47.98
11621;BME280;5866;49.094;11.900;2023-04-10T09:26:26;96867.50;;;17.45;46.06
11621;BME280;5866;49.094;11.900;2023-04-10T09:28:56;96869.13;;;17.97;45.38
11621;BME280;5866;49.094;11.900;2023-04-10T09:31:29;96872.47;;;17.27;46.28
11621;BME280;5866;49.094;11.900;2023-04-10T09:34:07;96871.88;;;17.61;44.15
11621;BME280;5866;49.094;11.900;2023-04-10T09:36:35;96871.22;;;17.44;44.39
11621;BME280;5866;49.094;11.900;2023-04-10T09:39:04;96873.13;;;17.65;44.41
11621;BME280;5866;49.094;11.900;2023-04-10T09:41:33;96870.63;;;18.48;42.90
11621;BME280;5866;49.094;11.900;2023-04-10T09:44:05;96849.13;;;19.23;40.33
11621;BME280;5866;49.094;11.900;2023-04-10T09:46:33;96867.59;;;17.88;43.88
11621;BME280;5866;49.094;11.900;2023-04-10T09:49:01;96864.81;;;17.60;43.97
11621;BME280;5866;49.094;11.900;2023-04-10T09:51:31;96861.31;;;16.95;45.58
11621;BME280;5866;49.094;11.900;2023-04-10T09:54:00;96857.84;;;17.30;44.77
11621;BME280;5866;49.094;11.900;2023-04-10T09:56:28;96853.25;;;17.45;43.40
11621;BME280;5866;49.094;11.900;2023-04-10T09:58:58;96850.66;;;17.87;43.88
11621;BME280;5866;49.094;11.900;2023-04-10T10:01:26;96842.28;;;18.18;43.30
11621;BME280;5866;49.094;11.900;2023-04-10T10:03:56;96841.16;;;18.12;42.79
11621;BME280;5866;49.094;11.900;2023-04-10T10:06:28;96842.84;;;18.41;42.43
11621;BME280;5866;49.094;11.900;2023-04-10T10:09:00;96843.56;;;19.78;41.31
11621;BME280;5866;49.094;11.900;2023-04-10T10:11:29;96836.06;;;18.17;42.19
11621;BME280;5866;49.094;11.900;2023-04-10T10:14:02;96835.44;;;17.02;44.11
11621;BME280;5866;49.094;11.900;2023-04-10T10:16:33;96824.81;;;16.94;44.33
11621;BME280;5866;49.094;11.900;2023-04-10T10:19:07;96828.59;;;17.35;43.36
11621;BME280;5866;49.094;11.900;2023-04-10T10:21:37;96822.53;;;17.83;42.16
11621;BME280;5866;49.094;11.900;2023-04-10T10:24:07;96815.13;;;18.62;40.95
11621;BME280;5866;49.094;11.900;2023-04-10T10:26:37;96819.69;;;17.49;41.58
11621;BME280;5866;49.094;11.900;2023-04-10T10:29:08;96810.03;;;17.90;41.68
11621;BME280;5866;49.094;11.900;2023-04-10T10:31:36;96805.94;;;17.73;41.41
11621;BME280;5866;49.094;11.900;2023-04-10T10:34:04;96802.34;;;17.66;42.56
11621;BME280;5866;49.094;11.900;2023-04-10T10:36:34;96795.19;;;17.94;42.05
11621;BME280;5866;49.094;11.900;2023-04-10T10:39:15;96794.69;;;17.84;41.62
11621;BME280;5866;49.094;11.900;2023-04-10T10:41:48;96778.63;;;18.18;40.67
11621;BME280;5866;49.094;11.900;2023-04-10T10:44:27;96780.56;;;18.31;40.93
11621;BME280;5866;49.094;11.900;2023-04-10T10:47:02;96775.63;;;18.28;39.87
11621;BME280;5866;49.094;11.900;2023-04-10T10:49:52;96770.94;;;18.37;39.80
11621;BME280;5866;49.094;11.900;2023-04-10T10:52:37;96764.75;;;18.77;40.74
11621;BME280;5866;49.094;11.900;2023-04-10T10:55:27;96775.41;;;18.30;41.60
11621;BME280;5866;49.094;11.900;2023-04-10T10:57:58;96767.31;;;18.98;39.44
11621;BME280;5866;49.094;11.900;2023-04-10T11:03:29;96762.31;;;18.48;39.80
11621;BME280;5866;49.094;11.900;2023-04-10T11:05:58;96758.91;;;19.14;39.25
11621;BME280;5866;49.094;11.900;2023-04-10T11:08:38;96753.53;;;19.14;39.80
11621;BME280;5866;49.094;11.900;2023-04-10T11:11:10;96741.94;;;18.60;40.83
11621;BME280;5866;49.094;11.900;2023-04-10T11:16:41;96741.13;;;18.32;40.65
11621;BME280;5866;49.094;11.900;2023-04-10T11:19:11;96728.88;;;17.88;40.40
11621;BME280;5866;49.094;11.900;2023-04-10T11:22:01;96730.72;;;17.24;42.19
11621;BME280;5866;49.094;11.900;2023-04-10T11:24:54;96735.72;;;17.27;42.52
11621;BME280;5866;49.094;11.900;2023-04-10T11:27:43;96726.22;;;17.67;41.70
11621;BME280;5866;49.094;11.900;2023-04-10T11:30:30;96728.56;;;18.04;41.04
11621;BME280;5866;49.094;11.900;2023-04-10T11:32:58;96715.63;;;18.49;40.19
11621;BME280;5866;49.094;11.900;2023-04-10T11:35:28;96717.91;;;18.45;40.15
11621;BME280;5866;49.094;11.900;2023-04-10T11:38:14;96719.50;;;18.12;40.24
11621;BME280;5866;49.094;11.900;2023-04-10T11:41:02;96708.13;;;17.76;41.54
11621;BME280;5866;49.094;11.900;2023-04-10T11:43:32;96717.50;;;18.20;39.89
11621;BME280;5866;49.094;11.900;2023-04-10T11:46:05;96719.09;;;18.43;40.25
11621;BME280;5866;49.094;11.900;2023-04-10T11:48:35;96712.34;;;19.07;38.16
11621;BME280;5866;49.094;11.900;2023-04-10T11:51:12;96706.47;;;19.77;38.80
11621;BME280;5866;49.094;11.900;2023-04-10T11:53:40;96698.16;;;20.24;37.91
11621;BME280;5866;49.094;11.900;2023-04-10T11:56:15;96698.13;;;20.44;37.15
11621;BME280;5866;49.094;11.900;2023-04-10T11:58:43;96700.66;;;19.93;37.04
11621;BME280;5866;49.094;11.900;2023-04-10T12:01:10;96695.31;;;18.40;38.77
11621;BME280;5866;49.094;11.900;2023-04-10T12:03:41;96697.47;;;16.98;42.22
11621;BME280;5866;49.094;11.900;2023-04-10T12:06:11;96694.75;;;16.77;41.98
11621;BME280;5866;49.094;11.900;2023-04-10T12:08:40;96680.75;;;17.38;41.66
11621;BME280;5866;49.094;11.900;2023-04-10T12:11:09;96695.44;;;17.21;42.24
11621;BME280;5866;49.094;11.900;2023-04-10T12:13:37;96696.19;;;16.94;42.26
11621;BME280;5866;49.094;11.900;2023-04-10T12:16:07;96693.03;;;15.96;44.14
11621;BME280;5866;49.094;11.900;2023-04-10T12:18:35;96697.69;;;16.82;43.62
11621;BME280;5866;49.094;11.900;2023-04-10T12:21:04;96687.66;;;17.05;41.44
11621;BME280;5866;49.094;11.900;2023-04-10T12:23:36;96682.75;;;17.51;41.21
11621;BME280;5866;49.094;11.900;2023-04-10T12:26:07;96679.50;;;18.51;39.22
11621;BME280;5866;49.094;11.900;2023-04-10T12:28:36;96678.59;;;18.85;40.42
11621;BME280;5866;49.094;11.900;2023-04-10T12:31:04;96678.28;;;19.34;38.13
11621;BME280;5866;49.094;11.900;2023-04-10T12:33:32;96675.53;;;20.32;37.17
11621;BME280;5866;49.094;11.900;2023-04-10T12:36:00;96669.25;;;20.51;36.32
11621;BME280;5866;49.094;11.900;2023-04-10T12:38:36;96662.97;;;19.87;37.71
11621;BME280;5866;49.094;11.900;2023-04-10T12:41:04;96657.38;;;19.88;36.72
11621;BME280;5866;49.094;11.900;2023-04-10T12:43:33;96656.13;;;19.91;37.36
11621;BME280;5866;49.094;11.900;2023-04-10T12:46:02;96653.81;;;20.20;35.14
11621;BME280;5866;49.094;11.900;2023-04-10T12:48:29;96650.91;;;20.09;36.97
11621;BME280;5866;49.094;11.900;2023-04-10T12:50:57;96648.47;;;21.65;33.61
11621;BME280;5866;49.094;11.900;2023-04-10T12:53:25;96638.47;;;22.69;31.33
11621;BME280;5866;49.094;11.900;2023-04-10T12:56:00;96632.22;;;22.50;32.42
11621;BME280;5866;49.094;11.900;2023-04-10T12:58:28;96627.41;;;21.98;33.09
11621;BME280;5866;49.094;11.900;2023-04-10T13:00:58;96635.22;;;21.63;33.81
11621;BME280;5866;49.094;11.900;2023-04-10T13:03:26;96630.34;;;20.78;34.39
11621;BME280;5866;49.094;11.900;2023-04-10T13:05:53;96635.06;;;20.45;35.25
11621;BME280;5866;49.094;11.900;2023-04-10T13:08:21;96627.06;;;20.70;34.75
11621;BME280;5866;49.094;11.900;2023-04-10T13:10:49;96624.22;;;20.65;34.04
11621;BME280;5866;49.094;11.900;2023-04-10T13:13:18;96614.19;;;20.78;34.93
11621;BME280;5866;49.094;11.900;2023-04-10T13:15:45;96616.22;;;21.45;34.18
11621;BME280;5866;49.094;11.900;2023-04-10T13:18:13;96609.69;;;21.34;34.59
11621;BME280;5866;49.094;11.900;2023-04-10T13:20:40;96614.75;;;20.49;35.30